Time;durP1;ratioP1;P1;durP2;ratioP2;P2;SDS_P1;SDS_P2;PMS_P1;PMS_P2;Temp;Humidity;BMP_temperature;BMP_pressure;BME280_temperature;BME280_humidity;BME280_pressure;Samples;Min_cycle;Max_cycle;Signal;HPM_P1;HPM_P2
2023/10/25 00:00:34;;;;;;;31.77;24.77;;;;;;;;;;5071017;28;20041;-59
2023/10/25 00:03:00;;;;;;;31.80;23.90;;;;;;;;;;5070634;28;20119;-59
2023/10/25 00:05:30;;;;;;;33.90;25.95;;;;;;;;;;5067743;28;20398;-59
2023/10/25 00:07:56;;;;;;;32.58;24.73;;;;;;;;;;5067198;28;20076;-59
2023/10/25 00:10:22;;;;;;;34.15;25.42;;;;;;;;;;5067870;28;20029;-60
2023/10/25 00:12:49;;;;;;;34.42;25.40;;;;;;;;;;5056492;28;20039;-59
2023/10/25 00:15:15;;;;;;;33.22;25.73;;;;;;;;;;5063411;28;20016;-59
2023/10/25 00:17:41;;;;;;;35.22;25.45;;;;;;;;;;5071082;28;20055;-59
2023/10/25 00:20:08;;;;;;;34.80;26.65;;;;;;;;;;5071159;28;20043;-59
2023/10/25 00:22:34;;;;;;;32.40;23.70;;;;;;;;;;5067616;28;20029;-59
2023/10/25 00:25:00;;;;;;;33.95;25.83;;;;;;;;;;5071396;28;20028;-59
2023/10/25 00:27:26;;;;;;;34.58;25.48;;;;;;;;;;5062482;28;20029;-59
2023/10/25 00:29:52;;;;;;;34.30;25.90;;;;;;;;;;5073244;28;20048;-59
2023/10/25 00:32:18;;;;;;;35.47;27.10;;;;;;;;;;5072950;28;20020;-59
2023/10/25 00:34:44;;;;;;;35.22;26.10;;;;;;;;;;5068168;28;20119;-59
2023/10/25 00:37:10;;;;;;;31.67;24.95;;;;;;;;;;5073614;28;20103;-59
2023/10/25 00:39:36;;;;;;;30.45;23.98;;;;;;;;;;5071134;28;20036;-59
2023/10/25 00:42:02;;;;;;;34.05;25.88;;;;;;;;;;5067415;28;20037;-59
2023/10/25 00:47:32;;;;;;;32.05;24.58;;;;;;;;;;5071622;28;20079;-59
2023/10/25 00:50:23;;;;;;;29.40;24.08;;;;;;;;;;5065694;28;20052;-60
2023/10/25 00:52:49;;;;;;;35.40;25.55;;;;;;;;;;5071675;28;20028;-60
2023/10/25 00:55:14;;;;;;;29.70;23.63;;;17.30;99.90;;;;;;5071917;28;20035;-60
2023/10/25 00:57:40;;;;;;;34.00;26.10;;;31.30;1.00;;;;;;5058907;28;20106;-59
2023/10/25 01:00:07;;;;;;;33.20;26.17;;;31.30;1.00;;;;;;5062866;28;20127;-60
2023/10/25 01:02:33;;;;;;;30.08;24.30;;;31.30;1.00;;;;;;5055290;28;20048;-60
2023/10/25 01:04:59;;;;;;;33.45;27.27;;;31.30;1.00;;;;;;5065353;28;20105;-59
2023/10/25 01:07:24;;;;;;;32.08;24.60;;;31.30;1.00;;;;;;5068563;28;20484;-60
2023/10/25 01:09:50;;;;;;;41.78;25.73;;;31.20;1.00;;;;;;5063322;28;20028;-60
2023/10/25 01:12:16;;;;;;;31.20;25.58;;;31.30;1.00;;;;;;5040417;28;20568;-59
2023/10/25 01:14:41;;;;;;;31.63;25.08;;;31.30;1.00;;;;;;5068440;28;20037;-60
2023/10/25 01:17:07;;;;;;;32.78;24.98;;;31.30;1.00;;;;;;5060767;28;20446;-60
2023/10/25 01:19:32;;;;;;;36.47;24.92;;;31.30;1.00;;;;;;5068079;28;20047;-60
2023/10/25 01:21:59;;;;;;;30.83;24.80;;;31.30;1.00;;;;;;5067194;28;20115;-60
2023/10/25 01:24:25;;;;;;;36.75;26.75;;;31.30;1.00;;;;;;5050491;28;20035;-60
2023/10/25 01:26:50;;;;;;;32.38;24.52;;;31.30;1.00;;;;;;5059154;28;20111;-60
2023/10/25 01:29:16;;;;;;;32.78;25.55;;;31.30;1.00;;;;;;5065451;28;20041;-60
2023/10/25 01:31:41;;;;;;;34.10;26.10;;;31.20;1.00;;;;;;5061751;28;20040;-59
2023/10/25 01:34:07;;;;;;;40.88;26.70;;;31.30;1.00;;;;;;5068274;28;20105;-60
2023/10/25 01:36:33;;;;;;;36.75;27.25;;;31.30;1.00;;;;;;5071729;28;20032;-60
2023/10/25 01:38:58;;;;;;;35.17;25.77;;;31.30;1.00;;;;;;5066635;28;20458;-60
2023/10/25 01:41:24;;;;;;;36.15;28.02;;;31.30;1.00;;;;;;5063550;28;20077;-60
2023/10/25 01:43:49;;;;;;;40.53;27.55;;;31.30;1.00;;;;;;5071116;28;20064;-60
2023/10/25 01:46:15;;;;;;;38.65;27.85;;;31.30;1.00;;;;;;5064490;28;20024;-60
2023/10/25 01:48:43;;;;;;;36.13;26.55;;;31.30;1.00;;;;;;5063493;28;20112;-60
2023/10/25 01:51:09;;;;;;;36.00;25.83;;;31.30;1.00;;;;;;5037945;28;20120;-59
2023/10/25 01:53:36;;;;;;;37.47;27.15;;;31.30;1.00;;;;;;5066602;28;20082;-60
2023/10/25 01:56:02;;;;;;;35.60;28.02;;;31.30;1.00;;;;;;5068151;28;20060;-59
2023/10/25 01:58:27;;;;;;;38.53;28.50;;;31.20;1.00;;;;;;5057337;28;20070;-60
2023/10/25 02:00:53;;;;;;;41.22;29.38;;;31.20;1.00;;;;;;5071069;28;20032;-60
2023/10/25 02:03:19;;;;;;;39.15;28.02;;;31.30;1.00;;;;;;5070279;28;20025;-60
2023/10/25 02:05:44;;;;;;;38.20;27.63;;;31.30;1.00;;;;;;5069706;28;20096;-60
2023/10/25 02:08:10;;;;;;;36.70;27.30;;;31.20;1.00;;;;;;5071327;28;20107;-60
2023/10/25 02:10:35;;;;;;;40.30;28.65;;;31.20;1.00;;;;;;5071217;28;20509;-60
2023/10/25 02:13:01;;;;;;;38.08;28.58;;;31.20;1.00;;;;;;5051922;28;20059;-60
2023/10/25 02:15:27;;;;;;;42.17;29.73;;;31.30;1.00;;;;;;5070995;28;20029;-60
2023/10/25 02:17:53;;;;;;;45.70;29.30;;;31.20;1.00;;;;;;5067111;28;20383;-60
2023/10/25 02:20:19;;;;;;;38.78;28.55;;;31.20;1.00;;;;;;5060744;28;20033;-59
2023/10/25 02:22:45;;;;;;;40.67;28.67;;;31.20;1.00;;;;;;5066941;28;20020;-60
2023/10/25 02:25:10;;;;;;;37.33;27.98;;;31.20;1.00;;;;;;5053149;28;20031;-59
2023/10/25 02:27:36;;;;;;;33.67;26.73;;;31.20;1.00;;;;;;5052402;28;20112;-60
2023/10/25 02:30:02;;;;;;;33.78;27.52;;;31.30;1.00;;;;;;5071742;28;20074;-60
2023/10/25 02:32:28;;;;;;;34.58;25.73;;;31.20;1.00;;;;;;5069929;28;20390;-60
2023/10/25 02:34:53;;;;;;;37.00;27.20;;;31.20;1.00;;;;;;5071592;28;20021;-60
2023/10/25 02:37:19;;;;;;;35.70;25.45;;;31.20;1.00;;;;;;5059467;28;20032;-60
2023/10/25 02:39:45;;;;;;;34.20;26.83;;;31.20;1.00;;;;;;5075774;28;20085;-60
2023/10/25 02:42:12;;;;;;;30.60;24.42;;;31.20;1.00;;;;;;5070241;28;20032;-60
2023/10/25 02:44:38;;;;;;;35.92;25.45;;;31.20;1.00;;;;;;5070468;28;20027;-60
2023/10/25 02:47:05;;;;;;;34.50;25.40;;;31.20;1.00;;;;;;5069704;28;20099;-59
2023/10/25 02:49:31;;;;;;;30.33;23.73;;;31.20;1.00;;;;;;5042109;28;20387;-60
2023/10/25 02:51:57;;;;;;;29.40;22.00;;;31.10;1.00;;;;;;5074736;28;20032;-59
2023/10/25 02:54:22;;;;;;;31.52;23.58;;;31.20;1.00;;;;;;5045679;28;20047;-59
2023/10/25 02:56:48;;;;;;;31.20;23.40;;;31.10;1.00;;;;;;5073864;28;20020;-60
2023/10/25 02:59:14;;;;;;;31.67;24.48;;;31.10;1.00;;;;;;5073547;28;20032;-59
2023/10/25 03:01:39;;;;;;;31.20;22.83;;;31.10;1.00;;;;;;5052931;28;20023;-60
2023/10/25 03:04:05;;;;;;;31.95;23.90;;;31.10;1.00;;;;;;5052574;28;20031;-59
2023/10/25 03:06:31;;;;;;;30.98;24.65;;;31.10;1.00;;;;;;5061116;28;20086;-61
2023/10/25 03:08:58;;;;;;;30.52;23.85;;;31.10;1.00;;;;;;5068516;28;20494;-59
2023/10/25 03:11:24;;;;;;;31.83;22.83;;;31.00;1.00;;;;;;5070984;28;20051;-59
2023/10/25 03:13:49;;;;;;;49.83;24.63;;;30.90;1.00;;;;;;5068766;28;20028;-59
2023/10/25 03:16:15;;;;;;;46.42;22.25;;;31.00;1.00;;;;;;5068798;28;20033;-59
2023/10/25 03:18:41;;;;;;;41.15;21.25;;;30.90;1.00;;;;;;5053099;28;20052;-59
2023/10/25 03:21:06;;;;;;;38.22;21.90;;;30.90;1.00;;;;;;5071404;28;20037;-60
2023/10/25 03:23:33;;;;;;;42.10;22.98;;;30.80;1.00;;;;;;5067245;28;20130;-60
2023/10/25 03:26:04;;;;;;;38.42;23.15;;;30.80;1.00;;;;;;5073088;28;20118;-59
2023/10/25 03:28:30;;;;;;;35.60;23.13;;;30.80;1.00;;;;;;5056773;28;20024;-59
2023/10/25 03:30:56;;;;;;;36.30;24.42;;;30.80;1.00;;;;;;5068670;28;20506;-59
2023/10/25 03:33:21;;;;;;;79.43;27.38;;;30.90;1.00;;;;;;5043221;28;20025;-60
2023/10/25 03:35:54;;;;;;;47.00;23.67;;;30.80;1.00;;;;;;5070211;28;20043;-59
2023/10/25 03:38:19;;;;;;;68.82;26.33;;;30.70;1.00;;;;;;5071983;28;20035;-60
2023/10/25 03:40:46;;;;;;;87.20;27.52;;;30.60;1.00;;;;;;5068327;28;20028;-60
2023/10/25 03:43:12;;;;;;;86.80;24.73;;;30.70;1.00;;;;;;5065105;28;20096;-59
2023/10/25 03:45:38;;;;;;;98.20;26.38;;;30.80;1.00;;;;;;5063365;28;20063;-59
2023/10/25 03:48:03;;;;;;;52.42;23.77;;;30.70;1.00;;;;;;5070537;28;20412;-60
2023/10/25 03:50:29;;;;;;;53.55;24.92;;;30.70;1.00;;;;;;5074213;28;20507;-60
2023/10/25 03:52:55;;;;;;;83.05;26.58;;;30.70;1.00;;;;;;5074569;28;20377;-60
2023/10/25 03:55:21;;;;;;;83.63;29.40;;;30.70;1.00;;;;;;5072656;28;20024;-60
2023/10/25 03:57:47;;;;;;;100.30;28.50;;;30.70;1.00;;;;;;5055319;28;20024;-60
2023/10/25 04:00:13;;;;;;;90.43;28.52;;;30.80;1.00;;;;;;5068434;28;20090;-60
2023/10/25 04:02:40;;;;;;;62.88;28.27;;;30.70;1.00;;;;;;5069945;28;20074;-60
2023/10/25 04:05:06;;;;;;;58.95;27.70;;;30.80;1.00;;;;;;5074068;28;20062;-60
2023/10/25 04:07:32;;;;;;;143.65;36.22;;;30.80;1.00;;;;;;5073472;28;20086;-60
2023/10/25 04:09:57;;;;;;;89.32;31.67;;;30.80;1.00;;;;;;5059977;28;20041;-60
2023/10/25 04:12:23;;;;;;;81.97;28.95;;;30.60;1.00;;;;;;5054117;28;20016;-60
2023/10/25 04:14:49;;;;;;;136.88;35.03;;;30.60;1.00;;;;;;5066508;28;20356;-60
2023/10/25 04:17:14;;;;;;;89.65;30.98;;;30.70;1.00;;;;;;5047757;28;20044;-60
2023/10/25 04:19:41;;;;;;;132.43;35.90;;;30.70;1.00;;;;;;5050024;28;20089;-60
2023/10/25 04:22:06;;;;;;;70.35;29.38;;;30.80;1.00;;;;;;5067165;28;20479;-60
2023/10/25 04:24:33;;;;;;;48.05;28.58;;;30.80;1.00;;;;;;5057368;28;20036;-60
2023/10/25 04:27:01;;;;;;;37.72;26.13;;;30.70;1.00;;;;;;5070176;28;20025;-60
2023/10/25 04:29:27;;;;;;;92.55;34.10;;;30.70;1.00;;;;;;5073857;28;20016;-60
2023/10/25 04:31:53;;;;;;;40.45;26.98;;;30.70;1.00;;;;;;5073293;28;20039;-60
2023/10/25 04:34:18;;;;;;;34.22;26.25;;;30.80;1.00;;;;;;5071063;28;20024;-60
2023/10/25 04:36:44;;;;;;;49.53;29.95;;;30.80;1.00;;;;;;5054560;28;20117;-60
2023/10/25 04:39:09;;;;;;;41.75;27.23;;;30.80;1.00;;;;;;5071811;28;20470;-60
2023/10/25 04:41:35;;;;;;;42.97;28.02;;;30.80;1.00;;;;;;5054058;28;20106;-60
2023/10/25 04:44:01;;;;;;;45.88;28.30;;;30.80;1.00;;;;;;5069148;28;20032;-60
2023/10/25 04:46:26;;;;;;;47.45;30.17;;;30.90;1.00;;;;;;5064697;28;20432;-60
2023/10/25 04:48:52;;;;;;;63.38;29.05;;;30.90;1.00;;;;;;5070019;28;20028;-60
2023/10/25 04:51:18;;;;;;;49.53;29.20;;;30.90;1.00;;;;;;5068667;28;20028;-60
2023/10/25 04:53:45;;;;;;;40.58;26.40;;;30.90;1.00;;;;;;5037039;28;20386;-61
2023/10/25 04:56:11;;;;;;;35.75;25.65;;;30.90;1.00;;;;;;5060426;28;20074;-61
2023/10/25 04:58:36;;;;;;;41.80;26.90;;;30.90;1.00;;;;;;5073444;28;20377;-60
2023/10/25 05:01:11;;;;;;;51.72;28.17;;;30.90;1.00;;;;;;5069325;28;20373;-60
2023/10/25 05:03:37;;;;;;;55.88;29.23;;;30.90;1.00;;;;;;5051906;28;20070;-60
2023/10/25 05:06:07;;;;;;;39.75;27.50;;;30.90;1.00;;;;;;5066922;28;20061;-60
2023/10/25 05:08:34;;;;;;;37.97;26.67;;;30.80;1.00;;;;;;5064456;28;20032;-61
2023/10/25 05:11:04;;;;;;;38.55;26.85;;;30.90;1.00;;;;;;5068084;28;20024;-60
2023/10/25 05:13:31;;;;;;;34.88;26.13;;;30.80;1.00;;;;;;5062815;28;20025;-60
2023/10/25 05:15:56;;;;;;;35.88;25.40;;;30.80;1.00;;;;;;5072305;28;20166;-61
2023/10/25 05:18:22;;;;;;;51.20;28.40;;;30.90;1.00;;;;;;5061430;28;20464;-61
2023/10/25 05:20:57;;;;;;;47.92;29.52;;;30.80;1.00;;;;;;5072912;28;20036;-60
2023/10/25 05:23:30;;;;;;;74.95;31.10;;;30.80;1.00;;;;;;5069126;28;20028;-61
2023/10/25 05:26:00;;;;;;;70.05;27.25;;;30.90;1.00;;;;;;5051617;28;20020;-60
2023/10/25 05:28:28;;;;;;;87.32;31.10;;;30.90;1.00;;;;;;5069030;28;20035;-60
2023/10/25 05:30:55;;;;;;;49.08;27.70;;;30.80;1.00;;;;;;5058215;28;20033;-60
2023/10/25 05:33:23;;;;;;;45.67;28.00;;;30.90;1.00;;;;;;5065860;28;20023;-60
2023/10/25 05:35:49;;;;;;;45.88;27.33;;;30.90;1.00;;;;;;5065743;28;20021;-60
2023/10/25 05:38:15;;;;;;;42.83;28.15;;;30.90;1.00;;;;;;5066838;28;20029;-60
2023/10/25 05:40:47;;;;;;;44.10;28.02;;;30.90;1.00;;;;;;5072249;28;20032;-60
2023/10/25 05:43:15;;;;;;;37.85;26.25;;;30.90;1.00;;;;;;5068179;28;20086;-60
2023/10/25 05:45:42;;;;;;;41.10;27.98;;;30.90;1.00;;;;;;5069715;28;20029;-60
2023/10/25 05:48:11;;;;;;;38.92;26.83;;;31.00;1.00;;;;;;5063718;28;20031;-60
2023/10/25 05:50:37;;;;;;;34.55;25.90;;;31.00;1.00;;;;;;5064927;28;20025;-60
2023/10/25 05:53:03;;;;;;;43.35;28.52;;;31.00;1.00;;;;;;5072970;28;20097;-60
2023/10/25 05:55:30;;;;;;;34.63;26.85;;;31.00;1.00;;;;;;5071662;28;20470;-59
2023/10/25 05:57:56;;;;;;;40.40;27.20;;;31.00;1.00;;;;;;5044089;28;20047;-59
2023/10/25 06:00:22;;;;;;;35.85;25.52;;;31.00;1.00;;;;;;5048638;28;20037;-60
2023/10/25 06:02:49;;;;;;;39.45;27.70;;;31.00;1.00;;;;;;5063444;28;20517;-60
2023/10/25 06:05:17;;;;;;;40.58;28.20;;;31.00;1.00;;;;;;5066529;28;20029;-60
2023/10/25 06:07:43;;;;;;;48.25;28.63;;;31.00;1.00;;;;;;5060648;28;20052;-59
2023/10/25 06:10:10;;;;;;;43.85;28.00;;;31.00;1.00;;;;;;5067554;28;20466;-60
2023/10/25 06:12:36;;;;;;;47.45;29.55;;;31.00;1.00;;;;;;5039853;28;20037;-60
2023/10/25 06:15:04;;;;;;;43.42;29.92;;;31.00;1.00;;;;;;5065320;28;20035;-60
2023/10/25 06:17:30;;;;;;;51.30;31.83;;;31.00;1.00;;;;;;5052537;28;20032;-60
2023/10/25 06:19:55;;;;;;;43.00;28.33;;;31.00;1.00;;;;;;5065258;28;20317;-60
2023/10/25 06:22:21;;;;;;;46.20;31.45;;;31.00;1.00;;;;;;5071373;28;20029;-60
2023/10/25 06:24:46;;;;;;;41.25;29.27;;;31.00;1.00;;;;;;5069432;28;20039;-61
2023/10/25 06:27:12;;;;;;;45.40;30.92;;;31.00;1.00;;;;;;5064484;28;20463;-58
2023/10/25 06:29:37;;;;;;;40.72;27.60;;;31.00;1.00;;;;;;5065583;28;20040;-58
2023/10/25 06:32:03;;;;;;;41.00;28.20;;;31.10;1.00;;;;;;5060099;28;20040;-58
2023/10/25 06:34:29;;;;;;;41.35;28.35;;;31.10;1.00;;;;;;5064993;28;20032;-60
2023/10/25 06:36:55;;;;;;;47.28;30.58;;;31.10;1.00;;;;;;5071255;28;20029;-59
2023/10/25 06:39:22;;;;;;;42.78;27.30;;;31.10;1.00;;;;;;5071573;28;20367;-59
2023/10/25 06:41:48;;;;;;;39.78;27.60;;;31.10;1.00;;;;;;5071682;28;20017;-59
2023/10/25 06:44:14;;;;;;;42.78;29.00;;;31.20;1.00;;;;;;5058768;28;20367;-60
2023/10/25 06:46:39;;;;;;;48.25;29.67;;;31.10;1.00;;;;;;5068544;28;20486;-60
2023/10/25 06:49:06;;;;;;;41.17;29.13;;;31.10;1.00;;;;;;5071722;28;20020;-60
2023/10/25 06:51:32;;;;;;;42.17;28.10;;;31.10;1.00;;;;;;5063976;28;20028;-60
2023/10/25 06:53:57;;;;;;;45.55;29.65;;;31.20;1.00;;;;;;5071278;28;20024;-60
2023/10/25 06:56:23;;;;;;;39.33;27.95;;;31.10;1.00;;;;;;5071593;28;20423;-60
2023/10/25 06:58:50;;;;;;;46.20;27.55;;;31.10;1.00;;;;;;5071283;28;20036;-60
2023/10/25 07:01:19;;;;;;;44.30;29.75;;;31.10;1.00;;;;;;5071448;28;20012;-60
2023/10/25 07:03:47;;;;;;;51.80;29.98;;;31.10;1.00;;;;;;5069870;28;20107;-60
2023/10/25 07:06:15;;;;;;;41.92;28.00;;;31.10;1.00;;;;;;5059053;28;20466;-60
2023/10/25 07:08:41;;;;;;;50.33;27.45;;;31.10;1.00;;;;;;5061789;28;20385;-60
2023/10/25 07:11:07;;;;;;;51.58;30.23;;;31.20;1.00;;;;;;5071215;28;20032;-60
2023/10/25 07:13:33;;;;;;;44.47;27.30;;;31.20;1.00;;;;;;5069448;28;20441;-60
2023/10/25 07:15:59;;;;;;;44.83;27.58;;;31.10;1.00;;;;;;5066932;28;20029;-60
2023/10/25 07:18:25;;;;;;;42.50;27.75;;;31.10;1.00;;;;;;5062807;28;20028;-60
2023/10/25 07:20:51;;;;;;;47.60;27.73;;;31.10;1.00;;;;;;5056452;28;20537;-71
2023/10/25 07:23:17;;;;;;;42.97;26.88;;;31.10;1.00;;;;;;5063272;28;20032;-63
2023/10/25 07:25:43;;;;;;;39.80;24.77;;;31.10;1.00;;;;;;5061787;28;20504;-65
2023/10/25 07:28:09;;;;;;;39.67;26.15;;;31.20;1.00;;;;;;5046453;28;20052;-70
2023/10/25 07:30:35;;;;;;;46.35;28.40;;;31.10;1.00;;;;;;5065932;28;20493;-66
2023/10/25 07:33:01;;;;;;;41.58;25.10;;;31.10;1.00;;;;;;5069190;28;20111;-67
2023/10/25 07:35:27;;;;;;;41.08;27.08;;;31.10;1.00;;;;;;5055721;28;20437;-65
2023/10/25 07:37:52;;;;;;;42.53;27.17;;;31.20;1.00;;;;;;5061781;28;20041;-65
2023/10/25 07:40:18;;;;;;;37.83;26.20;;;31.20;1.00;;;;;;5064947;28;20053;-64
2023/10/25 07:42:44;;;;;;;48.00;27.42;;;31.20;1.00;;;;;;5062092;28;20438;-64
2023/10/25 07:45:09;;;;;;;42.22;25.60;;;31.20;1.00;;;;;;5048754;28;20667;-63
2023/10/25 07:47:35;;;;;;;45.20;25.88;;;31.20;1.00;;;;;;5066163;28;20052;-69
2023/10/25 07:50:01;;;;;;;44.63;27.40;;;31.20;1.00;;;;;;5066503;28;20214;-66
2023/10/25 07:52:30;;;;;;;38.90;25.20;;;31.20;1.00;;;;;;5066445;28;20112;-71
2023/10/25 07:54:55;;;;;;;42.83;24.92;;;31.20;1.00;;;;;;5065048;28;20120;-67
2023/10/25 07:57:21;;;;;;;37.30;22.70;;;31.20;1.00;;;;;;5052903;28;20735;-68
2023/10/25 07:59:46;;;;;;;34.90;24.23;;;31.20;1.00;;;;;;5051933;28;20753;-68
2023/10/25 08:02:12;;;;;;;42.42;23.88;;;31.20;1.00;;;;;;5042376;28;20177;-65
2023/10/25 08:04:38;;;;;;;37.60;22.83;;;31.20;1.00;;;;;;5064254;28;20115;-65
2023/10/25 08:07:03;;;;;;;37.72;23.77;;;31.20;1.00;;;;;;5065803;28;20021;-60
2023/10/25 08:09:30;;;;;;;43.17;25.67;;;31.20;1.00;;;;;;5066565;28;20044;-67
2023/10/25 08:11:56;;;;;;;37.63;23.63;;;31.20;1.00;;;;;;5062755;28;20112;-67
2023/10/25 08:14:22;;;;;;;40.17;26.45;;;31.10;1.00;;;;;;5061435;28;20202;-69
2023/10/25 08:16:47;;;;;;;41.85;25.17;;;31.10;1.00;;;;;;5049270;28;20020;-72
2023/10/25 08:19:15;;;;;;;39.20;24.58;;;31.20;1.00;;;;;;5067373;28;20097;-67
2023/10/25 08:21:40;;;;;;;47.35;25.02;;;31.20;1.00;;;;;;5050662;28;20102;-66
2023/10/25 08:24:06;;;;;;;32.55;22.40;;;31.20;1.00;;;;;;5064351;28;20056;-62
2023/10/25 08:26:37;;;;;;;43.70;24.38;;;31.30;1.00;;;;;;5065560;28;20029;-63
2023/10/25 08:29:03;;;;;;;39.70;25.52;;;31.30;1.00;;;;;;5064916;28;20025;-61
2023/10/25 08:31:28;;;;;;;41.03;26.08;;;31.30;1.00;;;;;;5063530;28;20052;-61
2023/10/25 08:33:54;;;;;;;35.10;24.73;;;31.30;1.00;;;;;;5047727;28;20077;-62
2023/10/25 08:36:19;;;;;;;35.03;25.23;;;31.30;1.00;;;;;;5063534;28;20383;-61
2023/10/25 08:38:45;;;;;;;35.75;25.17;;;31.20;1.00;;;;;;5068746;28;20056;-65
2023/10/25 08:41:11;;;;;;;31.73;25.05;;;31.20;1.00;;;;;;5049313;28;20107;-69
2023/10/25 08:43:39;;;;;;;39.28;24.92;;;31.20;1.00;;;;;;5064668;28;20037;-61
2023/10/25 08:46:05;;;;;;;38.10;24.75;;;31.20;1.00;;;;;;5068380;28;20033;-60
2023/10/25 08:48:52;;;;;;;36.15;25.33;;;31.20;1.00;;;;;;5066113;28;20033;-53
2023/10/25 08:51:18;;;;;;;35.53;25.85;;;31.30;1.00;;;;;;5069664;28;20111;-62
2023/10/25 08:53:45;;;;;;;39.72;25.27;;;31.20;1.00;;;;;;5069671;28;20051;-60
2023/10/25 08:56:11;;;;;;;34.83;24.15;;;31.20;1.00;;;;;;5064846;28;20381;-59
2023/10/25 08:58:37;;;;;;;35.00;25.17;;;31.20;1.00;;;;;;5051645;28;20027;-59
2023/10/25 09:01:03;;;;;;;33.53;24.77;;;31.20;1.00;;;;;;5069088;28;20028;-59
2023/10/25 09:03:31;;;;;;;35.25;26.08;;;31.20;1.00;;;;;;5077758;28;20477;-59
2023/10/25 09:06:01;;;;;;;39.08;25.77;;;31.30;1.00;;;;;;5071585;28;20493;-71
2023/10/25 09:08:27;;;;;;;35.17;24.27;;;31.30;1.00;;;;;;5071338;28;20129;-62
2023/10/25 09:11:00;;;;;;;36.13;25.65;;;31.20;1.00;;;;;;5082484;28;20103;-65
2023/10/25 09:13:26;;;;;;;35.80;25.25;;;31.30;1.00;;;;;;5080636;28;20131;-59
2023/10/25 09:15:52;;;;;;;43.08;26.88;;;31.20;1.00;;;;;;5074856;28;20107;-60
2023/10/25 09:18:17;;;;;;;34.33;25.10;;;31.30;1.00;;;;;;5064804;28;20375;-52
2023/10/25 09:20:49;;;;;;;33.10;24.67;;;31.30;1.00;;;;;;5065330;28;20040;-52
2023/10/25 09:23:15;;;;;;;34.85;24.85;;;31.30;1.00;;;;;;5065258;28;20032;-55
2023/10/25 09:25:41;;;;;;;36.85;25.23;;;31.30;1.00;;;;;;5069111;28;20036;-76
2023/10/25 09:28:29;;;;;;;33.53;24.58;;;31.30;1.00;;;;;;5068574;28;20016;-63
2023/10/25 09:30:59;;;;;;;35.15;23.70;;;;;;;;;;5066384;28;20041;-67
2023/10/25 09:33:28;;;;;;;33.10;22.45;;;;;;;;;;5049132;28;20450;-62
2023/10/25 09:35:54;;;;;;;32.13;23.55;;;;;;;;;;5062120;28;20025;-60
2023/10/25 09:38:21;;;;;;;32.95;22.98;;;;;;;;;;5062252;28;20028;-59
2023/10/25 09:40:47;;;;;;;29.75;23.38;;;;;;;;;;5069563;28;20090;-57
2023/10/25 09:43:16;;;;;;;29.45;21.45;;;;;;;;;;5062651;28;20020;-57
2023/10/25 09:45:43;;;;;;;32.70;22.85;;;;;;;;;;5063820;28;20028;-60
2023/10/25 09:48:13;;;;;;;32.00;22.27;;;;;;;;;;5064410;28;20013;-60
2023/10/25 09:50:42;;;;;;;38.28;24.23;;;;;;;;;;5063255;28;20505;-60
2023/10/25 09:53:11;;;;;;;31.52;23.48;;;;;;;;;;5062980;28;20024;-60
2023/10/25 09:55:38;;;;;;;31.50;22.52;;;;;;;;;;5071151;28;20055;-62
2023/10/25 09:58:04;;;;;;;32.08;23.83;;;;;;;;;;5049995;28;20025;-62
2023/10/25 10:00:30;;;;;;;33.78;24.70;;;;;;;;;;5065822;28;20119;-69
2023/10/25 10:02:58;;;;;;;32.03;24.73;;;;;;;;;;5063792;28;20487;-63
2023/10/25 10:05:46;;;;;;;35.28;24.73;;;;;;;;;;5062597;28;20028;-66
2023/10/25 10:08:15;;;;;;;38.50;26.80;;;;;;;;;;5066794;28;20055;-64
2023/10/25 10:10:44;;;;;;;39.75;27.00;;;;;;;;;;5065172;28;20025;-65
2023/10/25 10:13:17;;;;;;;36.42;25.52;;;;;;;;;;5065867;28;20485;-66
2023/10/25 10:16:04;;;;;;;38.45;25.80;;;;;;;;;;5063167;28;20061;-62
2023/10/25 10:18:37;;;;;;;32.55;24.50;;;;;;;;;;5063318;28;20071;-65
2023/10/25 10:21:04;;;;;;;37.80;25.75;;;;;;;;;;5066477;28;20378;-67
2023/10/25 10:23:51;;;;;;;34.42;24.73;;;;;;;;;;5069458;28;20107;-69
2023/10/25 10:26:36;;;;;;;34.35;24.48;;;;;;;;;;5062349;28;20035;-69
2023/10/25 10:29:02;;;;;;;33.33;24.70;;;;;;;;;;5065935;28;20024;-61
2023/10/25 10:31:28;;;;;;;32.40;24.98;;;;;;;;;;5044138;28;20045;-70
2023/10/25 10:33:54;;;;;;;30.50;23.23;;;;;;;;;;5067876;28;20046;-54
2023/10/25 10:36:30;;;;;;;30.55;23.95;;;;;;;;;;5047079;28;20031;-59
2023/10/25 10:39:12;;;;;;;35.15;25.75;;;;;;;;;;5061602;28;20033;-64
2023/10/25 10:41:39;;;;;;;35.45;26.13;;;;;;;;;;5062965;28;20032;-64
2023/10/25 10:44:05;;;;;;;36.13;26.38;;;;;;;;;;5064937;28;20035;-65
2023/10/25 10:46:31;;;;;;;35.85;27.35;;;;;;;;;;5060953;28;20108;-64
2023/10/25 10:49:02;;;;;;;41.97;28.67;;;;;;;;;;5061356;28;20508;-64
2023/10/25 10:51:28;;;;;;;41.15;28.52;;;;;;;;;;5048924;28;20437;-65
2023/10/25 10:53:54;;;;;;;47.85;31.30;;;;;;;;;;5060388;28;20100;-65
2023/10/25 10:56:20;;;;;;;45.33;30.48;;;;;;;;;;5063310;28;20025;-65
2023/10/25 10:58:46;;;;;;;43.20;31.60;;;;;;;;;;5049659;28;20025;-65
2023/10/25 11:01:13;;;;;;;46.38;29.95;;;;;;;;;;5064591;28;20108;-65
2023/10/25 11:03:39;;;;;;;46.15;32.67;;;;;;;;;;5068148;28;20052;-65
2023/10/25 11:06:05;;;;;;;46.88;31.50;;;;;;;;;;5068328;28;20115;-65
2023/10/25 11:08:32;;;;;;;46.17;30.90;;;;;;;;;;5051441;28;20107;-65
2023/10/25 11:10:58;;;;;;;45.90;30.45;;;;;;;;;;5065756;28;20494;-65
2023/10/25 11:13:24;;;;;;;44.00;31.05;;;;;;;;;;5066404;28;20028;-66
2023/10/25 11:16:00;;;;;;;43.42;29.33;;;;;;;;;;5065834;28;20024;-67
2023/10/25 11:18:26;;;;;;;43.28;30.77;;;;;;;;;;5067363;28;20067;-65
2023/10/25 11:20:52;;;;;;;44.90;31.33;;;31.30;1.00;;;;;;5069297;28;20064;-65
2023/10/25 11:23:18;;;;;;;45.95;33.22;;;32.20;1.00;;;;;;5061214;28;20111;-64
2023/10/25 11:25:45;;;;;;;43.45;30.92;;;32.20;1.00;;;;;;5076093;28;20029;-64
2023/10/25 11:28:11;;;;;;;48.13;32.38;;;32.20;1.00;;;;;;5061741;28;20210;-65
2023/10/25 11:30:40;;;;;;;53.70;36.58;;;32.20;1.00;;;;;;5074578;28;20123;-65
2023/10/25 11:33:06;;;;;;;48.03;33.72;;;32.30;1.00;;;;;;5071769;28;20021;-65
2023/10/25 11:35:32;;;;;;;52.58;34.78;;;32.40;1.00;;;;;;5071951;28;20036;-65
2023/10/25 11:37:59;;;;;;;48.83;33.42;;;32.30;1.00;;;;;;5050868;28;20029;-64
2023/10/25 11:40:42;;;;;;;48.92;33.17;;;32.30;1.00;;;;;;5071610;28;20036;-64
2023/10/25 11:43:08;;;;;;;51.75;34.40;;;32.40;1.00;;;;;;5074769;28;20020;-65
2023/10/25 11:45:37;;;;;;;45.65;31.10;;;;;;;;;;5074709;28;20478;-64
2023/10/25 11:48:04;;;;;;;48.25;33.65;;;;;;;;;;5074590;28;20099;-65
2023/10/25 11:50:30;;;;;;;46.75;32.85;;;;;;;;;;5066458;28;20155;-65
2023/10/25 11:52:58;;;;;;;45.75;31.17;;;;;;;;;;5069442;28;20053;-65
2023/10/25 11:55:25;;;;;;;48.28;34.35;;;;;;;;;;5072242;28;20032;-65
2023/10/25 11:57:51;;;;;;;48.42;32.67;;;;;;;;;;5074263;28;20027;-65
2023/10/25 12:00:17;;;;;;;54.58;35.45;;;;;;;;;;5074259;28;20037;-65
2023/10/25 12:02:44;;;;;;;49.05;33.05;;;;;;;;;;5074089;28;20024;-64
2023/10/25 12:05:12;;;;;;;51.42;34.35;;;32.40;1.00;;;;;;5072863;28;20020;-65
2023/10/25 12:07:38;;;;;;;49.35;34.28;;;32.40;1.00;;;;;;5070614;28;20141;-64
2023/10/25 12:10:04;;;;;;;48.22;33.70;;;32.50;1.00;;;;;;5065026;28;20115;-65
2023/10/25 12:12:31;;;;;;;50.40;32.90;;;32.50;1.00;;;;;;5068949;28;20504;-65
2023/10/25 12:14:57;;;;;;;44.28;31.25;;;32.50;1.00;;;;;;5068243;28;20025;-65
2023/10/25 12:17:23;;;;;;;41.78;30.38;;;32.60;1.00;;;;;;5073731;28;20478;-64
2023/10/25 12:19:51;;;;;;;44.33;31.27;;;32.50;1.00;;;;;;5065149;28;20047;-64
2023/10/25 12:22:18;;;;;;;50.40;32.90;;;32.50;1.00;;;;;;5073791;28;20047;-65
2023/10/25 12:24:46;;;;;;;44.30;30.85;;;32.50;1.00;;;;;;5074007;28;20119;-65
2023/10/25 12:27:12;;;;;;;46.28;32.00;;;32.60;1.00;;;;;;5065559;28;20074;-64
2023/10/25 12:29:38;;;;;;;46.35;32.13;;;32.60;1.00;;;;;;5072119;28;20436;-65
2023/10/25 12:32:04;;;;;;;46.08;31.02;;;;;;;;;;5073892;28;20025;-66
2023/10/25 12:34:30;;;;;;;44.72;30.75;;;;;;;;;;5068046;28;20032;-65
2023/10/25 12:36:56;;;;;;;43.15;29.92;;;;;;;;;;5050572;28;20363;-64
2023/10/25 12:39:22;;;;;;;47.25;30.90;;;;;;;;;;5065030;28;20049;-57
2023/10/25 12:41:49;;;;;;;44.53;31.70;;;;;;;;;;5050619;28;20411;-58
2023/10/25 12:44:15;;;;;;;51.40;34.63;;;;;;;;;;5065388;28;20028;-56
2023/10/25 12:46:42;;;;;;;52.63;35.20;;;;;;;;;;5064182;28;20504;-66
2023/10/25 12:49:08;;;;;;;55.72;37.42;;;;;;;;;;5070845;28;20028;-64
2023/10/25 12:51:35;;;;;;;52.05;36.08;;;;;;;;;;5071852;28;20032;-67
2023/10/25 12:54:01;;;;;;;52.35;36.88;;;;;;;;;;5065238;28;20447;-63
2023/10/25 12:56:27;;;;;;;56.17;37.25;;;;;;;;;;5068076;28;20029;-58
2023/10/25 12:58:53;;;;;;;47.28;34.92;;;;;;;;;;5060302;28;20032;-54
2023/10/25 13:01:19;;;;;;;47.15;34.47;;;;;;;;;;5067259;28;20020;-52
2023/10/25 13:03:46;;;;;;;44.72;33.55;;;;;;;;;;5067404;28;21605;-54